Time;durP1;ratioP1;P1;durP2;ratioP2;P2;SDS_P1;SDS_P2;PMS_P1;PMS_P2;Temp;Humidity;BMP_temperature;BMP_pressure;BME280_temperature;BME280_humidity;BME280_pressure;Samples;Min_cycle;Max_cycle;Signal;HPM_P1;HPM_P2
2021/08/25 00:02:05;;;;;;;12.65;8.93;;;;;;;16.54;61.75;100084.23;1783073;79;22206;-68
2021/08/25 00:04:32;;;;;;;17.35;8.83;;;;;;;16.53;61.58;100081.23;1780373;80;20939;-68
2021/08/25 00:06:58;;;;;;;14.07;9.20;;;;;;;16.53;61.28;100080.40;1780181;80;20983;-68
2021/08/25 00:09:26;;;;;;;15.32;8.98;;;;;;;16.51;61.12;100079.23;1779977;79;21034;-68
2021/08/25 00:11:53;;;;;;;14.58;8.98;;;;;;;16.51;61.03;100076.58;1780167;79;21382;-68
2021/08/25 00:14:19;;;;;;;15.68;9.13;;;;;;;16.51;61.16;100079.23;1780054;78;21840;-68
2021/08/25 00:16:47;;;;;;;13.40;9.53;;;;;;;16.51;61.35;100077.91;1713528;80;20995;-69
2021/08/25 00:19:13;;;;;;;14.58;9.20;;;;;;;16.52;61.59;100076.91;1781449;79;21039;-68
2021/08/25 00:21:41;;;;;;;12.53;9.10;;;;;;;16.52;61.94;100077.41;1791528;79;20984;-68
2021/08/25 00:24:08;;;;;;;12.65;9.00;;;;;;;16.51;62.03;100073.91;1811471;79;21035;-68
2021/08/25 00:26:34;;;;;;;13.20;9.03;;;;;;;16.50;62.01;100076.24;1812044;79;22820;-68
2021/08/25 00:29:01;;;;;;;13.48;9.08;;;;;;;16.50;61.82;100080.71;1811973;79;21380;-68
2021/08/25 00:31:27;;;;;;;12.68;8.85;;;;;;;16.49;61.66;100077.22;1782519;79;21491;-69
2021/08/25 00:33:54;;;;;;;12.85;8.85;;;;;;;16.49;61.74;100076.39;1811110;79;21407;-68
2021/08/25 00:36:20;;;;;;;12.20;8.35;;;;;;;16.50;61.68;100081.58;1811276;79;21383;-68
2021/08/25 00:38:46;;;;;;;11.50;8.88;;;;;;;16.52;61.75;100077.41;1812113;79;21789;-68
2021/08/25 00:41:13;;;;;;;10.53;7.85;;;;;;;16.53;61.84;100077.23;1809840;79;21391;-69
2021/08/25 00:43:39;;;;;;;11.60;8.15;;;;;;;16.57;61.55;100069.22;1812069;79;21466;-68
2021/08/25 00:46:06;;;;;;;13.78;8.03;;;;;;;16.62;61.55;100073.23;1781125;79;21445;-69
2021/08/25 00:48:32;;;;;;;11.65;7.70;;;;;;;16.65;61.48;100071.55;1780103;79;20944;-68
2021/08/25 00:51:00;;;;;;;11.12;7.78;;;;;;;16.68;61.43;100069.41;1781993;79;22379;-68
2021/08/25 00:53:26;;;;;;;12.03;7.97;;;;;;;16.71;61.31;100072.26;1781357;79;21043;-68
2021/08/25 00:55:55;;;;;;;12.37;7.90;;;;;;;16.73;61.25;100073.75;1780056;80;20955;-68
2021/08/25 00:58:21;;;;;;;11.63;8.00;;;;;;;16.75;61.25;100067.73;1780341;80;21435;-68
2021/08/25 01:01:02;;;;;;;11.38;8.05;;;;;;;16.75;61.15;100067.73;1780330;80;20907;-69
2021/08/25 01:03:32;;;;;;;12.50;8.65;;;;;;;16.77;61.07;100069.73;1779987;80;21793;-68
2021/08/25 01:05:58;;;;;;;15.63;8.60;;;;;;;16.80;61.01;100067.25;1780293;79;20991;-68
2021/08/25 01:08:26;;;;;;;11.50;8.13;;;;;;;16.81;60.93;100061.73;1780060;80;21054;-69
2021/08/25 01:10:52;;;;;;;13.32;8.33;;;;;;;16.83;61.16;100061.56;1781356;79;20995;-68
2021/08/25 01:13:18;;;;;;;14.68;8.70;;;;;;;16.85;61.17;100057.72;1781832;79;21003;-69
2021/08/25 01:15:46;;;;;;;11.78;8.33;;;;;;;16.86;61.07;100058.05;1751984;79;22844;-69
2021/08/25 01:18:15;;;;;;;13.20;8.75;;;;;;;16.91;61.03;100059.38;1785966;79;21421;-69
2021/08/25 01:20:43;;;;;;;13.13;8.80;;;;;;;16.93;61.17;100054.20;1780056;79;20961;-68
2021/08/25 01:23:11;;;;;;;12.85;8.33;;;;;;;16.97;61.30;100056.84;1790797;79;20976;-68
2021/08/25 01:25:38;;;;;;;14.15;8.70;;;;;;;17.00;61.51;100053.86;1794999;79;21034;-69
2021/08/25 01:28:07;;;;;;;13.10;8.83;;;;;;;17.04;61.63;100049.00;1780138;79;21730;-69
2021/08/25 01:30:37;;;;;;;12.78;8.08;;;;;;;17.03;61.55;100046.83;1792733;79;20932;-68
2021/08/25 01:33:04;;;;;;;11.95;8.48;;;;;;;17.05;61.61;100047.49;1809234;77;20971;-69
2021/08/25 01:35:34;;;;;;;11.90;8.05;;;;;;;17.04;61.63;100042.33;1780144;80;20948;-68
2021/08/25 01:38:02;;;;;;;11.35;7.90;;;;;;;17.04;61.35;100044.50;1790060;79;20963;-69
2021/08/25 01:40:28;;;;;;;12.33;7.90;;;;;;;17.05;60.68;100040.82;1811988;78;22193;-68
2021/08/25 01:42:55;;;;;;;12.35;7.53;;;;;;;17.05;60.42;100039.48;1810835;79;20995;-69
2021/08/25 01:45:22;;;;;;;13.30;7.83;;;;;;;17.05;60.45;100042.16;1789819;79;20935;-69
2021/08/25 01:47:50;;;;;;;12.23;7.97;;;;;;;17.08;60.59;100048.97;1779995;80;21359;-68
2021/08/25 01:50:16;;;;;;;11.20;6.97;;;;;;;17.07;59.63;100064.16;1780047;80;21505;-68
2021/08/25 01:52:42;;;;;;;11.05;7.33;;;;;;;17.06;59.18;100067.00;1779951;79;21808;-69
2021/08/25 01:55:09;;;;;;;12.30;7.55;;;;;;;17.06;58.88;100055.82;1782128;79;21240;-68
2021/08/25 01:57:35;;;;;;;10.98;7.35;;;;;;;17.08;58.26;100044.50;1780060;80;21035;-68
2021/08/25 02:00:05;;;;;;;9.90;6.75;;;;;;;17.14;58.03;100049.63;1785501;79;20987;-68
2021/08/25 02:02:32;;;;;;;11.48;7.37;;;;;;;17.19;58.33;100045.96;1812028;79;20932;-69
2021/08/25 02:04:58;;;;;;;10.65;7.30;;;;;;;17.20;59.06;100046.29;1811363;78;22164;-69
2021/08/25 02:07:25;;;;;;;10.35;6.80;;;;;;;17.20;59.48;100041.45;1810412;79;21012;-69
2021/08/25 02:09:53;;;;;;;12.85;7.42;;;;;;;17.20;59.57;100041.45;1812055;79;20932;-68
2021/08/25 02:12:19;;;;;;;12.30;7.60;;;;;;;17.20;59.57;100042.28;1812075;79;20991;-69
2021/08/25 02:14:45;;;;;;;10.58;7.33;;;;;;;17.18;59.64;100040.30;1789471;79;21457;-69
2021/08/25 02:17:13;;;;;;;10.95;7.50;;;;;;;17.17;59.83;100039.94;1771732;80;21746;-68
2021/08/25 02:19:39;;;;;;;12.63;7.45;;;;;;;17.12;60.11;100040.47;1783830;79;21070;-69
2021/08/25 02:22:07;;;;;;;10.70;7.45;;;;;;;17.10;60.13;100045.66;1783552;79;21077;-69
2021/08/25 02:24:34;;;;;;;13.88;7.92;;;;;;;17.05;59.97;100036.81;1783574;79;20975;-68
2021/08/25 02:27:01;;;;;;;23.12;14.73;;;;;;;17.05;59.84;100044.82;1761656;80;20943;-68
2021/08/25 02:29:28;;;;;;;18.42;13.62;;;;;;;17.01;60.15;100044.84;1783934;79;21825;-68
2021/08/25 02:31:55;;;;;;;13.65;10.45;;;;;;;16.99;60.31;100044.70;1783508;80;20936;-68
2021/08/25 02:34:22;;;;;;;13.55;9.35;;;;;;;16.93;60.47;100043.53;1784564;79;20936;-69
2021/08/25 02:36:49;;;;;;;13.18;8.58;;;;;;;16.86;60.54;100046.03;1783528;80;21006;-68
2021/08/25 02:39:15;;;;;;;13.58;10.05;;;;;;;16.83;60.54;100048.22;1811415;79;21031;-68
2021/08/25 02:41:42;;;;;;;12.47;10.15;;;;;;;16.81;60.60;100052.91;1816017;79;22166;-68
2021/08/25 02:44:09;;;;;;;12.40;9.20;;;;;;;16.78;60.82;100048.72;1803322;78;21498;-69
2021/08/25 02:46:35;;;;;;;13.18;8.63;;;;;;;16.77;60.58;100052.89;1783980;79;21501;-68
2021/08/25 02:49:03;;;;;;;13.13;8.25;;;;;;;16.76;60.56;100052.56;1799522;79;20960;-69
2021/08/25 02:51:30;;;;;;;10.88;7.78;;;;;;;16.77;60.82;100058.23;1814593;79;20951;-69
2021/08/25 02:53:57;;;;;;;9.93;7.20;;;;;;;16.79;61.20;100049.08;1815611;79;21801;-68
2021/08/25 02:56:23;;;;;;;9.88;7.30;;;;;;;16.79;61.33;100049.55;1815728;79;20962;-68
2021/08/25 02:58:49;;;;;;;10.82;7.87;;;;;;;16.80;61.36;100048.07;1813366;79;20987;-69
2021/08/25 03:01:16;;;;;;;12.07;8.20;;;;;;;16.81;61.31;100036.39;1816001;79;21031;-68
2021/08/25 03:03:42;;;;;;;10.28;7.53;;;;;;;16.84;61.35;100036.55;1815324;79;21347;-68
2021/08/25 03:06:08;;;;;;;12.13;7.90;;;;;;;16.88;61.36;100032.02;1816045;77;22755;-69
2021/08/25 03:08:37;;;;;;;12.40;8.13;;;;;;;16.93;61.38;100033.36;1814393;79;21019;-69
2021/08/25 03:11:04;;;;;;;12.33;7.40;;;;;;;16.95;60.93;100028.17;1790693;79;20947;-68
2021/08/25 03:13:30;;;;;;;14.63;7.53;;;;;;;16.99;60.91;100036.19;1758829;80;21000;-69
2021/08/25 03:15:57;;;;;;;13.48;7.42;;;;;;;17.01;60.85;100034.17;1759831;81;21017;-68
2021/08/25 03:18:23;;;;;;;12.68;8.05;;;;;;;17.03;60.42;100030.83;1772912;79;22233;-69
2021/08/25 03:20:50;;;;;;;11.65;7.90;;;;;;;17.05;60.01;100027.98;1783803;79;21020;-69
2021/08/25 03:23:16;;;;;;;10.58;7.47;;;;;;;17.08;60.03;100027.16;1785122;79;21011;-69
2021/08/25 03:25:43;;;;;;;11.57;8.05;;;;;;;17.11;59.90;100026.80;1803351;79;20948;-68
2021/08/25 03:28:09;;;;;;;11.63;8.38;;;;;;;17.14;59.76;100025.62;1803607;79;21049;-68
2021/08/25 03:30:36;;;;;;;10.40;7.78;;;;;;;17.14;59.89;100026.45;1802179;79;21826;-69
2021/08/25 03:33:06;;;;;;;11.60;8.25;;;;;;;17.16;60.18;100032.44;1805017;79;20932;-69
2021/08/25 03:35:33;;;;;;;11.33;8.40;;;;;;;17.17;60.36;100031.94;1804779;79;21025;-69
2021/08/25 03:38:00;;;;;;;12.58;8.23;;;;;;;17.19;60.51;100035.28;1791228;79;21019;-69
2021/08/25 03:40:26;;;;;;;11.45;8.05;;;;;;;17.21;60.64;100035.94;1773019;81;21039;-68
2021/08/25 03:42:53;;;;;;;13.03;8.50;;;;;;;17.24;60.65;100040.92;1763671;80;22257;-69
2021/08/25 03:45:19;;;;;;;10.68;8.08;;;;;;;17.28;60.62;100038.76;1778780;79;21065;-69
2021/08/25 03:47:46;;;;;;;11.80;8.23;;;;;;;17.31;60.77;100036.56;1804701;79;20948;-69
2021/08/25 03:50:13;;;;;;;18.30;9.13;;;;;;;17.36;60.79;100043.53;1804686;79;20999;-68
2021/08/25 03:52:39;;;;;;;15.20;9.15;;;;;;;17.37;60.21;100055.04;1802434;78;21027;-69
2021/08/25 03:55:06;;;;;;;13.62;10.05;;;;;;;17.34;60.35;100064.23;1804929;79;22234;-69
2021/08/25 03:57:33;;;;;;;26.68;16.48;;;;;;;17.36;60.30;100065.39;1804646;78;20976;-68
2021/08/25 04:00:01;;;;;;;24.75;16.93;;;;;;;17.38;60.18;100058.90;1787809;79;21522;-68
2021/08/25 04:02:28;;;;;;;25.85;16.52;;;;;;;17.42;59.86;100058.04;1785834;79;21043;-70
2021/08/25 04:04:54;;;;;;;23.47;15.43;;;;;;;17.44;59.71;100040.83;1775214;79;21423;-68
2021/08/25 04:07:23;;;;;;;22.93;14.95;;;;;;;17.49;59.74;100040.83;1774266;79;21542;-69
2021/08/25 04:09:51;;;;;;;24.70;15.40;;;;;;;17.55;59.76;100052.95;1773496;79;21400;-69
2021/08/25 04:12:18;;;;;;;21.55;14.50;;;;;;;17.57;59.46;100052.30;1772889;79;21464;-68
2021/08/25 04:14:46;;;;;;;22.30;15.45;;;;;;;17.60;59.44;100062.62;1776901;79;21462;-69
2021/08/25 04:17:13;;;;;;;23.40;16.15;;;;;;;17.58;59.49;100058.48;1798245;78;20952;-70
2021/08/25 04:19:40;;;;;;;35.60;15.80;;;;;;;17.56;59.58;100057.29;1785328;79;22236;-69
2021/08/25 04:22:07;;;;;;;27.85;16.32;;;;;;;17.54;59.67;100049.96;1809955;79;20988;-71
2021/08/25 04:24:33;;;;;;;24.75;16.32;;;;;;;17.57;59.63;100051.47;1795522;79;20928;-70
2021/08/25 04:27:00;;;;;;;26.23;17.57;;;;;;;17.58;59.36;100057.97;1778182;80;20999;-72
2021/08/25 04:29:28;;;;;;;26.12;17.65;;;;;;;17.60;59.17;100046.61;1778588;79;21487;-71
2021/08/25 04:31:54;;;;;;;26.23;18.23;;;;;;;17.63;58.93;100038.73;1791697;79;21866;-71
2021/08/25 04:34:21;;;;;;;29.50;18.35;;;;;;;17.67;58.55;100043.56;1785111;79;20948;-71
2021/08/25 04:36:47;;;;;;;24.95;17.70;;;;;;;17.69;58.61;100036.71;1778270;79;20972;-70
2021/08/25 04:39:14;;;;;;;27.45;18.40;;;;;;;17.74;58.82;100031.69;1778120;80;20960;-68
2021/08/25 04:41:42;;;;;;;25.88;17.35;;;;;;;17.80;58.88;100032.33;1778236;80;21007;-69
2021/08/25 04:44:08;;;;;;;27.58;18.02;;;;;;;17.85;59.07;100029.11;1782023;77;22478;-69
2021/08/25 04:46:34;;;;;;;27.60;18.00;;;;;;;17.88;58.87;100032.78;1778365;80;20840;-68
2021/08/25 04:49:01;;;;;;;30.30;19.23;;;;;;;17.93;58.82;100023.72;1801145;79;20928;-68
2021/08/25 04:51:27;;;;;;;28.45;18.73;;;;;;;17.96;58.64;100024.21;1803279;79;21422;-68
2021/08/25 04:53:54;;;;;;;26.25;17.95;;;;;;;18.01;58.80;100029.84;1778099;80;20932;-69
2021/08/25 04:56:20;;;;;;;35.17;17.87;;;;;;;18.06;58.13;100029.32;1802201;79;22449;-69
2021/08/25 04:58:46;;;;;;;35.23;19.45;;;;;;;18.10;58.07;100037.30;1793703;79;21027;-69
2021/08/25 05:01:13;;;;;;;29.75;17.12;;;;;;;18.15;58.10;100032.26;1801177;79;21007;-69
2021/08/25 05:03:39;;;;;;;27.50;17.62;;;;;;;18.22;58.07;100035.85;1780367;79;20947;-69
2021/08/25 05:06:11;;;;;;;28.52;17.48;;;;;;;18.26;57.68;100035.84;1797099;79;21063;-69
2021/08/25 05:08:38;;;;;;;31.45;18.00;;;;;;;18.31;57.46;100035.28;1808819;79;21860;-70
2021/08/25 05:11:05;;;;;;;27.05;17.77;;;;;;;18.34;57.38;100042.14;1778568;79;20944;-70
2021/08/25 05:13:33;;;;;;;30.68;17.87;;;;;;;18.35;57.30;100032.59;1778148;79;20924;-69
2021/08/25 05:16:01;;;;;;;27.77;17.85;;;;;;;18.38;57.33;100032.73;1782372;80;20987;-68
2021/08/25 05:18:27;;;;;;;30.32;18.05;;;;;;;18.43;57.41;100034.34;1782447;79;21031;-68
2021/08/25 05:20:54;;;;;;;27.55;17.50;;;;;;;18.49;57.37;100029.11;1784349;79;21820;-68
2021/08/25 05:23:21;;;;;;;26.95;17.30;;;;;;;18.54;57.27;100031.25;1793815;77;21675;-69
2021/08/25 05:25:47;;;;;;;26.30;16.85;;;;;;;18.57;57.14;100025.53;1798307;78;21066;-69
2021/08/25 05:28:14;;;;;;;29.55;18.05;;;;;;;18.64;57.12;100029.16;1812644;79;21035;-68
2021/08/25 05:30:41;;;;;;;24.82;17.15;;;;;;;18.70;56.96;100028.44;1804399;79;21002;-68
2021/08/25 05:33:07;;;;;;;27.25;17.77;;;;;;;18.78;56.91;100023.00;1804181;77;21792;-69
2021/08/25 05:35:34;;;;;;;26.35;16.57;;;;;;;18.88;56.77;100021.39;1814513;79;21018;-69
2021/08/25 05:38:00;;;;;;;27.02;16.05;;;;;;;18.96;56.19;100020.48;1802593;78;21038;-69
2021/08/25 05:40:26;;;;;;;24.12;15.93;;;;;;;19.05;55.62;100024.73;1786210;79;21023;-70
2021/08/25 05:42:53;;;;;;;26.77;15.00;;;;;;;19.13;55.16;100026.80;1804353;79;21003;-70
2021/08/25 05:45:19;;;;;;;21.73;15.75;;;;;;;19.23;54.96;100028.37;1782804;80;22828;-70
2021/08/25 05:47:46;;;;;;;27.52;15.35;;;;;;;19.28;54.92;100030.79;1786686;79;21062;-70
2021/08/25 05:50:12;;;;;;;22.58;15.93;;;;;;;19.33;54.51;100017.69;1782599;80;20991;-69
2021/08/25 05:52:38;;;;;;;27.93;16.50;;;;;;;19.41;54.46;100018.92;1782520;80;21066;-70
2021/08/25 05:55:05;;;;;;;25.02;15.28;;;;;;;19.50;54.53;100010.78;1782660;79;21042;-69
2021/08/25 05:57:32;;;;;;;23.47;15.03;;;;;;;19.55;54.06;100014.54;1782340;80;21505;-70
2021/08/25 05:59:58;;;;;;;25.32;15.32;;;;;;;19.62;53.99;100014.14;1796829;79;21561;-69
2021/08/25 06:02:24;;;;;;;22.70;15.50;;;;;;;19.67;53.60;100002.33;1812859;79;21482;-68
2021/08/25 06:04:51;;;;;;;25.32;14.78;;;;;;;19.76;53.92;100006.23;1799316;79;21466;-70
2021/08/25 06:07:17;;;;;;;21.87;15.00;;;;;;;19.82;54.16;100004.15;1788975;78;21486;-68
2021/08/25 06:09:44;;;;;;;20.77;13.98;;;;;;;19.89;54.41;100013.09;1799725;79;21810;-69
2021/08/25 06:12:11;;;;;;;22.20;14.00;;;;;;;19.93;54.15;100004.98;1797188;79;21010;-68
2021/08/25 06:14:38;;;;;;;22.20;12.93;;;;;;;19.99;54.21;100001.55;1788993;77;21027;-68
2021/08/25 06:17:05;;;;;;;19.10;13.30;;;;;;;20.06;54.42;100003.75;1804706;79;21023;-67
2021/08/25 06:19:32;;;;;;;20.50;13.10;;;;;;;20.11;54.83;100010.72;1812593;79;21468;-69
2021/08/25 06:21:58;;;;;;;19.85;12.95;;;;;;;20.15;55.18;100007.13;1788106;79;22614;-68
2021/08/25 06:24:24;;;;;;;21.97;13.60;;;;;;;20.20;55.51;100004.20;1789494;79;21017;-69
2021/08/25 06:26:52;;;;;;;21.25;12.70;;;;;;;20.29;55.97;100004.91;1783808;79;20944;-71
2021/08/25 06:29:19;;;;;;;20.48;12.93;;;;;;;20.38;56.34;100000.23;1770980;79;21003;-71
2021/08/25 06:31:45;;;;;;;20.90;12.68;;;;;;;20.43;56.35;99995.95;1791721;79;20924;-71
2021/08/25 06:34:11;;;;;;;20.08;13.03;;;;;;;20.52;56.52;99997.47;1784877;77;22150;-71
2021/08/25 06:36:38;;;;;;;18.67;12.98;;;;;;;20.61;56.53;99998.15;1807510;78;21019;-72
2021/08/25 06:39:05;;;;;;;20.97;13.58;;;;;;;20.68;56.55;100008.94;1795262;79;21073;-73
2021/08/25 06:41:32;;;;;;;20.37;13.18;;;;;;;20.76;56.58;100012.81;1788097;79;21460;-72
2021/08/25 06:43:59;;;;;;;20.57;13.13;;;;;;;20.84;56.61;100022.03;1815652;78;21462;-72
2021/08/25 06:46:25;;;;;;;22.00;13.05;;;;;;;20.86;56.37;100021.34;1806234;78;21803;-74
2021/08/25 06:48:52;;;;;;;22.00;12.70;;;;;;;20.91;56.35;100026.11;1812247;79;21495;-74
2021/08/25 06:51:19;;;;;;;17.50;12.10;;;;;;;20.90;56.33;100017.23;1783559;79;21034;-73
2021/08/25 06:53:45;;;;;;;18.00;12.03;;;;;;;20.92;56.25;100012.48;1801579;79;21436;-72
2021/08/25 06:56:11;;;;;;;17.55;11.15;;;;;;;20.95;56.12;100016.66;1783736;79;21391;-73
2021/08/25 06:58:38;;;;;;;16.25;10.80;;;;;;;20.98;56.15;100021.62;1782620;79;21802;-72
2021/08/25 07:01:04;;;;;;;18.30;10.93;;;;;;;21.00;56.08;100026.27;1783135;79;20916;-72
2021/08/25 07:03:30;;;;;;;14.05;10.70;;;;;;;21.01;55.93;100024.72;1784055;79;20995;-71
2021/08/25 07:05:57;;;;;;;17.92;10.95;;;;;;;21.00;55.86;100024.41;1799420;79;21015;-72
2021/08/25 07:08:23;;;;;;;14.78;9.90;;;;;;;21.05;55.78;100030.55;1788739;79;21011;-73
2021/08/25 07:10:50;;;;;;;13.70;9.90;;;;;;;21.07;55.72;100036.55;1816054;79;22171;-73
2021/08/25 07:13:16;;;;;;;16.45;10.80;;;;;;;21.09;55.67;100039.85;1797718;79;21035;-73
2021/08/25 07:15:42;;;;;;;16.48;10.50;;;;;;;21.10;55.82;100043.67;1806789;78;21039;-73
2021/08/25 07:18:09;;;;;;;15.68;9.53;;;;;;;21.13;55.78;100043.30;1802386;79;20960;-73
2021/08/25 07:20:36;;;;;;;13.72;9.85;;;;;;;21.16;55.80;100051.47;1782362;79;21066;-72
2021/08/25 07:23:02;;;;;;;12.43;9.08;;;;;;;21.15;55.75;100051.98;1798285;78;22198;-73
2021/08/25 07:25:28;;;;;;;13.90;9.75;;;;;;;21.16;55.96;100051.47;1814635;79;20987;-73
2021/08/25 07:27:55;;;;;;;18.65;9.53;;;;;;;21.12;56.13;100055.05;1804411;79;20951;-72
2021/08/25 07:30:21;;;;;;;18.17;10.78;;;;;;;21.04;56.27;100070.00;1794671;79;20940;-70
2021/08/25 07:32:48;;;;;;;24.67;11.50;;;;;;;20.98;56.70;100065.41;1784278;79;21042;-72
2021/08/25 07:35:14;;;;;;;19.50;11.45;;;;;;;20.97;57.30;100062.92;1784441;79;21809;-70
2021/08/25 07:37:41;;;;;;;21.10;11.25;;;;;;;20.94;58.01;100060.13;1784051;80;21003;-72
2021/08/25 07:40:09;;;;;;;18.77;11.28;;;;;;;20.93;58.45;100069.69;1790415;79;20971;-71
2021/08/25 07:42:36;;;;;;;19.27;12.25;;;;;;;20.93;58.67;100083.94;1794737;78;20951;-71
2021/08/25 07:45:04;;;;;;;21.25;11.97;;;;;;;20.88;58.84;100078.86;1783924;80;21038;-70
2021/08/25 07:47:31;;;;;;;16.32;11.08;;;;;;;20.81;58.87;100074.27;1790568;78;21807;-70
2021/08/25 07:49:57;;;;;;;15.28;11.18;;;;;;;20.71;59.12;100078.31;1800150;78;20976;-69
2021/08/25 07:52:24;;;;;;;15.95;11.60;;;;;;;20.61;58.96;100077.83;1816256;79;20904;-69
2021/08/25 07:54:52;;;;;;;17.57;10.80;;;;;;;20.54;58.96;100085.81;1799785;79;21034;-69
2021/08/25 07:57:18;;;;;;;15.15;10.50;;;;;;;20.49;58.39;100095.80;1803956;79;21068;-70
2021/08/25 07:59:45;;;;;;;17.80;10.65;;;;;;;20.49;58.18;100096.30;1785227;79;21782;-74
2021/08/25 08:02:11;;;;;;;18.05;11.63;;;;;;;20.45;57.71;100094.50;1799432;79;20927;-70
2021/08/25 08:04:37;;;;;;;16.50;11.08;;;;;;;20.42;57.63;100090.02;1808317;79;20984;-70
2021/08/25 08:07:04;;;;;;;18.57;11.28;;;;;;;20.36;57.78;100079.53;1813295;79;20983;-70
2021/08/25 08:09:30;;;;;;;19.87;10.98;;;;;;;20.39;57.98;100080.50;1783882;79;20991;-70
2021/08/25 08:11:57;;;;;;;16.93;10.90;;;;;;;20.44;58.00;100079.94;1784016;79;21736;-70
2021/08/25 08:14:23;;;;;;;23.27;12.80;;;;;;;20.52;58.13;100070.42;1784754;79;20936;-70
2021/08/25 08:16:55;;;;;;;19.77;13.18;;;;;;;20.64;58.14;100066.69;1785156;79;20924;-70
2021/08/25 08:19:22;;;;;;;19.10;13.05;;;;;;;20.71;57.99;100070.27;1785489;79;20985;-70
2021/08/25 08:21:49;;;;;;;21.37;13.13;;;;;;;20.80;57.91;100070.44;1785771;80;21042;-72
2021/08/25 08:24:16;;;;;;;21.02;13.62;;;;;;;20.82;57.71;100069.72;1798475;79;22445;-71
2021/08/25 08:26:44;;;;;;;20.50;13.30;;;;;;;20.84;57.95;100065.84;1816816;79;21039;-72
2021/08/25 08:29:11;;;;;;;19.17;13.05;;;;;;;20.86;58.01;100061.61;1789790;79;21521;-72
2021/08/25 08:31:37;;;;;;;17.15;11.93;;;;;;;20.92;58.10;100058.64;1814932;79;21475;-72
2021/08/25 08:34:04;;;;;;;17.30;11.18;;;;;;;20.98;57.97;100061.37;1814329;79;21454;-71
2021/08/25 08:36:30;;;;;;;19.77;11.63;;;;;;;21.00;57.93;100067.89;1785637;79;21755;-72
2021/08/25 08:38:57;;;;;;;19.48;11.88;;;;;;;20.96;57.35;100067.47;1789003;79;21077;-71
2021/08/25 08:41:23;;;;;;;16.82;11.50;;;;;;;20.92;57.18;100067.52;1783777;80;21070;-70
2021/08/25 08:43:51;;;;;;;18.82;11.60;;;;;;;20.91;56.94;100071.23;1784308;80;21021;-73
2021/08/25 08:46:20;;;;;;;17.20;11.80;;;;;;;20.84;57.09;100080.61;1784017;79;21042;-72
2021/08/25 08:48:51;;;;;;;18.87;11.57;;;;;;;20.79;57.30;100074.15;1785204;79;22206;-72
2021/08/25 08:51:23;;;;;;;17.05;11.30;;;;;;;20.79;57.65;100082.20;1784156;79;20983;-73
2021/08/25 08:53:51;;;;;;;21.33;11.22;;;;;;;20.80;57.88;100075.80;1784416;79;21128;-72
2021/08/25 08:56:18;;;;;;;17.00;11.60;;;;;;;20.85;58.49;100064.81;1784539;80;21038;-72
2021/08/25 08:58:44;;;;;;;14.40;11.12;;;;;;;20.88;59.06;100062.23;1784671;80;21089;-72
2021/08/25 09:01:11;;;;;;;22.75;11.55;;;;;;;20.88;58.98;100064.92;1758045;80;21828;-70
2021/08/25 09:03:39;;;;;;;17.90;11.53;;;;;;;20.89;58.83;100071.13;1784118;80;21023;-72
2021/08/25 09:06:08;;;;;;;15.50;10.95;;;;;;;20.89;58.79;100066.58;1792934;79;21025;-71
2021/08/25 09:08:39;;;;;;;15.05;11.00;;;;;;;20.90;59.13;100064.21;1806116;79;21367;-73
2021/08/25 09:11:15;;;;;;;16.80;10.95;;;;;;;20.92;59.11;100060.81;1818411;79;20937;-72
2021/08/25 09:13:48;;;;;;;17.73;11.95;;;;;;;20.91;58.87;100061.01;1786027;80;22408;-71
2021/08/25 09:16:31;;;;;;;18.75;11.70;;;;;;;20.85;58.92;100055.42;1771388;79;20964;-71
2021/08/25 09:19:09;;;;;;;15.70;11.18;;;;;;;20.77;59.23;100058.25;1734859;80;22648;-71
2021/08/25 09:21:40;;;;;;;16.67;11.18;;;;;;;20.70;59.59;100057.87;1770676;78;21010;-71
2021/08/25 09:24:07;;;;;;;22.02;11.48;;;;;;;20.66;59.71;100060.64;1804791;78;20995;-69
2021/08/25 09:26:37;;;;;;;19.02;11.30;;;;;;;20.66;59.95;100058.79;1787758;80;21826;-70
2021/08/25 09:29:20;;;;;;;18.45;11.65;;;;;;;20.67;60.19;100050.22;1743234;82;20957;-70
2021/08/25 09:31:48;;;;;;;17.50;11.22;;;;;;;20.68;60.54;100043.31;1743770;82;21562;-70
2021/08/25 09:34:29;;;;;;;20.23;12.50;;;;;;;20.68;60.87;100031.75;1762260;81;21024;-72
2021/08/25 09:37:17;;;;;;;19.02;12.68;;;;;;;20.72;61.08;100030.32;1732008;82;20952;-71
2021/08/25 09:39:47;;;;;;;20.77;14.58;;;;;;;20.78;61.47;100025.01;1763312;80;22327;-71
2021/08/25 09:42:16;;;;;;;22.87;14.15;;;;;;;20.83;61.56;100010.98;1761110;81;21005;-71
2021/08/25 09:44:43;;;;;;;17.92;13.83;;;;;;;20.90;61.62;100014.55;1751353;81;20957;-72
2021/08/25 09:47:10;;;;;;;21.12;14.07;;;;;;;20.96;61.59;100013.77;1793914;79;20997;-72
2021/08/25 09:49:37;;;;;;;22.90;14.28;;;;;;;21.03;61.64;100013.27;1793659;79;21456;-71
2021/08/25 09:52:05;;;;;;;22.82;13.25;;;;;;;21.11;61.64;100005.05;1793596;78;21705;-72
2021/08/25 09:54:33;;;;;;;18.17;13.20;;;;;;;21.21;61.46;100003.85;1793538;78;21076;-72
2021/08/25 09:57:00;;;;;;;18.98;11.53;;;;;;;21.28;61.09;100005.58;1758006;80;21010;-72
2021/08/25 09:59:26;;;;;;;18.48;12.33;;;;;;;21.35;60.89;100009.13;1732178;81;21044;-71
2021/08/25 10:01:54;;;;;;;17.80;12.18;;;;;;;21.42;60.53;100004.62;1732062;82;20957;-71
2021/08/25 10:04:20;;;;;;;21.23;12.33;;;;;;;21.51;60.26;100006.58;1732005;82;21819;-71
2021/08/25 10:06:49;;;;;;;18.73;12.35;;;;;;;21.60;59.86;99998.66;1714492;81;21033;-71
2021/08/25 10:09:17;;;;;;;18.42;12.23;;;;;;;21.65;59.38;99990.83;1762285;81;21024;-72
2021/08/25 10:11:48;;;;;;;19.98;12.15;;;;;;;21.73;59.06;99990.34;1762314;81;21376;-71
2021/08/25 10:14:18;;;;;;;19.00;12.65;;;;;;;21.77;58.32;99997.77;1741319;81;21024;-71
2021/08/25 10:16:48;;;;;;;22.22;12.28;;;;;;;21.76;57.72;99992.09;1758659;81;21776;-72
2021/08/25 10:19:37;;;;;;;19.87;12.10;;;;;;;21.81;57.90;99986.09;1767771;81;21084;-71
2021/08/25 10:22:19;;;;;;;21.40;13.03;;;;;;;21.93;57.64;99986.64;1767965;80;21009;-73
2021/08/25 10:25:00;;;;;;;18.15;12.95;;;;;;;22.16;57.06;99997.03;1767754;81;20965;-72
2021/08/25 10:27:30;;;;;;;20.95;12.60;;;;;;;22.41;56.34;99994.55;1767732;80;21002;-72
2021/08/25 10:30:11;;;;;;;22.27;12.65;;;;;;;22.61;55.89;99991.02;1766581;80;21571;-73
2021/08/25 10:32:56;;;;;;;20.35;12.15;;;;;;;22.70;55.06;99982.52;1767726;81;20998;-70
2021/08/25 10:35:31;;;;;;;18.73;12.25;;;;;;;22.83;54.84;99989.20;1767253;81;20961;-72
2021/08/25 10:38:19;;;;;;;20.25;12.65;;;;;;;22.97;53.85;99994.08;1764223;80;21887;-72
2021/08/25 10:40:47;;;;;;;16.25;11.78;;;;;;;23.03;52.89;99996.43;1767690;81;21021;-72
2021/08/25 10:43:41;;;;;;;20.17;12.07;;;;;;;23.04;52.52;100000.77;1767955;81;22424;-71
2021/08/25 10:46:15;;;;;;;18.45;12.07;;;;;;;23.05;51.84;100008.64;1767568;81;21010;-72
2021/08/25 10:48:50;;;;;;;19.57;11.93;;;;;;;23.05;51.72;99997.04;1766642;80;20953;-71
2021/08/25 10:51:33;;;;;;;19.32;12.05;;;;;;;23.05;51.76;100001.91;1741713;81;21547;-71
2021/08/25 10:54:01;;;;;;;23.75;12.70;;;;;;;23.11;51.76;99998.89;1767764;81;21040;-71
2021/08/25 10:56:32;;;;;;;19.80;12.50;;;;;;;23.16;51.26;99989.64;1767542;80;22642;-71
2021/08/25 10:59:04;;;;;;;20.08;12.85;;;;;;;23.21;51.28;99980.94;1767364;81;21368;-71
2021/08/25 11:01:43;;;;;;;20.52;13.13;;;;;;;23.24;51.46;99979.97;1767618;80;21001;-71
2021/08/25 11:04:18;;;;;;;20.05;13.15;;;;;;;23.29;51.17;99984.73;1766598;81;21041;-71
2021/08/25 11:06:55;;;;;;;24.32;12.18;;;;;;;23.41;51.25;99981.14;1767887;81;21357;-72
2021/08/25 11:09:32;;;;;;;18.82;12.35;;;;;;;23.60;50.79;99973.20;1749230;81;22443;-72
2021/08/25 11:12:09;;;;;;;17.98;12.47;;;;;;;23.85;50.49;99975.44;1737810;81;21477;-72
2021/08/25 11:14:56;;;;;;;18.55;12.35;;;;;;;24.13;49.90;99969.63;1761502;81;21453;-72
2021/08/25 11:17:28;;;;;;;18.48;12.60;;;;;;;24.43;48.91;99977.09;1759219;81;21440;-72